Terminal Aerodrome Forecast
Issued by NWS

Home | Current Version | Previous Version | Text Only | Print | Product List | Glossary On
Versions: 1 2 3 4 5 6 7 8 9 10 11 12 13 14 15
674
FTUS45 KABQ 290535
TAFTCC
TAF
KTCC 290535Z 2906/3006 16007KT P6SM FEW120
     FM291000 19008KT P6SM SCT015
      TEMPO 2910/2914 BKN015
     FM291400 21010KT P6SM FEW040
     FM291700 19014G23KT P6SM SCT060
     FM292000 18016G26KT P6SM VCTS BKN080CB=

USA.gov is the U.S. government's official web portal to all federal, state and local government web resources and services.